^^
Paulen-Weather Station Historical Data
Daily Summary for May 27, 2022 Units:  English    Metric   Both
Daily Weekly Monthly Yearly Custom
  High: Low: Average:
Temperature: 55.4 °F 44.6 °F 48.6 °F
Dew Point: 46.4 °F 42.8 °F 43.5 °F
Humidity: 94% 62% 83%
Wind Speed: 17.4mph 0mph 7.1mph
Wind Gust: 14.3mph - -
Wind- - NW
Pressure: 29.7 in 29.6 in -
Precipitation: 0.03 in    
Historical Graphs
 
 
Tabular Data for May 27, 2022
Time Temperature Dew Point Pressure Wind Wind Speed Wind Gust Humidity Rainfall Rate (Hourly) solar
00:04 50 °F 46.4 °F 29.7 in WNW 0.6 mph   88% 0.02 in 0 W/m2
00:09 50 °F 46.4 °F 29.7 in WNW 1.9 mph 0.6 mph 87% 0 in 0 W/m2
00:14 48.2 °F 44.6 °F 29.7 in WNW 1.2 mph 0.6 mph 88% 0.01 in 0 W/m2
00:19 48.2 °F 44.6 °F 29.7 in WNW 1.2 mph   88% 0.01 in 0 W/m2
00:24 48.2 °F 44.6 °F 29.7 in WNW 0.6 mph   89% 0.01 in 0 W/m2
00:29 48.2 °F 44.6 °F 29.7 in Calm     89% 0.01 in 0 W/m2
00:34 48.2 °F 44.6 °F 29.7 in WNW 1.2 mph 0.6 mph 90% 0.01 in 0 W/m2
00:39 48.2 °F 44.6 °F 29.7 in WNW 1.2 mph 0.6 mph 90% 0.01 in 0 W/m2
00:44 48.2 °F 44.6 °F 29.7 in WNW 0.6 mph   90% 0.01 in 0 W/m2
00:49 48.2 °F 44.6 °F 29.7 in WNW 1.9 mph 0.6 mph 91% 0.01 in 0 W/m2
00:54 48.2 °F 44.6 °F 29.7 in WNW 1.2 mph 0.6 mph 91% 0.01 in 0 W/m2
00:59 48.2 °F 44.6 °F 29.7 in WNW 1.9 mph 0.6 mph 92% 0.03 in 0 W/m2
01:04 48.2 °F 44.6 °F 29.7 in WNW 1.2 mph 0.6 mph 92% 0.02 in 0 W/m2
01:09 48.2 °F 44.6 °F 29.7 in WNW 2.5 mph 0.6 mph 92% 0.01 in 0 W/m2
01:14 48.2 °F 44.6 °F 29.7 in WNW 2.5 mph 1.2 mph 92% 0.01 in 0 W/m2
01:19 46.4 °F 44.6 °F 29.7 in NW 3.1 mph 1.9 mph 92% 0.01 in 0 W/m2
01:24 46.4 °F 44.6 °F 29.7 in NW 3.1 mph 1.9 mph 92% 0.01 in 0 W/m2
01:29 46.4 °F 44.6 °F 29.7 in NW 3.7 mph 2.5 mph 93% 0.01 in 0 W/m2
01:34 46.4 °F 44.6 °F 29.7 in NW 6.2 mph 3.1 mph 93% 0.01 in 0 W/m2
01:39 46.4 °F 44.6 °F 29.7 in NW 8.7 mph 5 mph 93% 0.01 in 0 W/m2
01:44 46.4 °F 44.6 °F 29.7 in NW 4.3 mph 3.1 mph 93% 0.01 in 0 W/m2
01:49 46.4 °F 44.6 °F 29.7 in NW 6.2 mph 3.1 mph 93% 0.01 in 0 W/m2
01:54 46.4 °F 44.6 °F 29.7 in NW 3.1 mph 2.5 mph 93% 0.01 in 0 W/m2
01:59 46.4 °F 44.6 °F 29.7 in NW 5 mph 5 mph 93% 0.01 in 0 W/m2
02:04 46.4 °F 44.6 °F 29.7 in NW 5 mph 3.7 mph 93% 0.01 in 0 W/m2
02:09 46.4 °F 44.6 °F 29.7 in NNW 7.5 mph 5 mph 93% 0.01 in 0 W/m2
02:14 46.4 °F 44.6 °F 29.7 in NNW 5.6 mph 5 mph 93% 0.01 in 0 W/m2
02:19 46.4 °F 44.6 °F 29.7 in NW 5 mph 3.7 mph 93% 0 in 0 W/m2
02:24 46.4 °F 44.6 °F 29.7 in NW 5.6 mph 3.1 mph 93% 0 in 0 W/m2
02:29 46.4 °F 44.6 °F 29.7 in NW 4.3 mph 3.7 mph 94% 0 in 0 W/m2
02:34 46.4 °F 44.6 °F 29.7 in NNW 8.1 mph 5 mph 94% 0 in 0 W/m2
02:39 46.4 °F 44.6 °F 29.7 in NNW 8.7 mph 6.8 mph 93% 0 in 0 W/m2
02:44 46.4 °F 44.6 °F 29.7 in NNW 8.7 mph 6.2 mph 93% 0 in 0 W/m2
02:49 46.4 °F 44.6 °F 29.7 in NW 8.1 mph 5.6 mph 93% 0 in 0 W/m2
02:54 46.4 °F 42.8 °F 29.7 in NW 6.2 mph 4.3 mph 92% 0 in 0 W/m2
02:59 46.4 °F 42.8 °F 29.7 in NW 7.5 mph 3.7 mph 92% 0 in 0 W/m2
03:04 44.6 °F 42.8 °F 29.7 in NW 5.6 mph 3.1 mph 92% 0 in 0 W/m2
03:09 44.6 °F 42.8 °F 29.7 in NW 6.8 mph 4.3 mph 92% 0 in 0 W/m2
03:14 44.6 °F 42.8 °F 29.7 in NW 5.6 mph 3.1 mph 92% 0 in 0 W/m2
03:19 44.6 °F 42.8 °F 29.7 in WNW 4.3 mph 3.7 mph 92% 0 in 0 W/m2
03:24 44.6 °F 42.8 °F 29.7 in NW 6.2 mph 3.7 mph 92% 0 in 0 W/m2
03:29 44.6 °F 42.8 °F 29.7 in NW 3.7 mph 1.9 mph 92% 0 in 0 W/m2
03:34 44.6 °F 42.8 °F 29.7 in NW 2.5 mph 1.2 mph 92% 0 in 0 W/m2
03:39 44.6 °F 42.8 °F 29.7 in NW 3.7 mph 1.9 mph 92% 0 in 0 W/m2
03:44 44.6 °F 42.8 °F 29.7 in NW 5.6 mph 4.3 mph 92% 0 in 0 W/m2
03:49 44.6 °F 42.8 °F 29.7 in NW 3.7 mph 2.5 mph 92% 0 in 0 W/m2
03:54 44.6 °F 42.8 °F 29.7 in NW 3.1 mph 3.1 mph 92% 0 in 0 W/m2
03:59 44.6 °F 42.8 °F 29.7 in NW 3.7 mph 2.5 mph 92% 0 in 0 W/m2
04:04 44.6 °F 42.8 °F 29.7 in NW 5.6 mph 3.1 mph 92% 0 in 0 W/m2
04:09 44.6 °F 42.8 °F 29.7 in NNW 6.8 mph 5 mph 92% 0 in 0 W/m2
04:14 44.6 °F 42.8 °F 29.7 in NW 6.8 mph 5 mph 92% 0 in 0 W/m2
04:19 44.6 °F 42.8 °F 29.7 in NNW 7.5 mph 6.2 mph 92% 0 in 0 W/m2
04:24 44.6 °F 42.8 °F 29.7 in NW 5 mph 3.7 mph 92% 0 in 0 W/m2
04:29 44.6 °F 42.8 °F 29.7 in NW 7.5 mph 5.6 mph 92% 0 in 0 W/m2
04:34 44.6 °F 42.8 °F 29.7 in WNW 5 mph 2.5 mph 92% 0 in 0 W/m2
04:39 44.6 °F 42.8 °F 29.7 in NW 6.2 mph 3.7 mph 92% 0 in 0 W/m2
04:44 44.6 °F 42.8 °F 29.7 in NW 6.8 mph 3.7 mph 92% 0 in 5 W/m2
04:49 44.6 °F 42.8 °F 29.7 in NW 6.8 mph 3.7 mph 92% 0 in 9 W/m2
04:54 44.6 °F 42.8 °F 29.7 in WNW 5 mph 3.1 mph 92% 0 in 11 W/m2
04:59 44.6 °F 42.8 °F 29.7 in WNW 6.8 mph 5.6 mph 92% 0 in 9 W/m2
05:04 44.6 °F 42.8 °F 29.7 in W 3.7 mph 2.5 mph 92% 0 in 11 W/m2
05:09 44.6 °F 42.8 °F 29.7 in WNW 4.3 mph 3.7 mph 92% 0 in 12 W/m2
05:14 44.6 °F 42.8 °F 29.7 in WNW 3.7 mph 2.5 mph 92% 0 in 18 W/m2
05:19 44.6 °F 42.8 °F 29.7 in WNW 3.7 mph 2.5 mph 92% 0 in 40 W/m2
05:24 44.6 °F 42.8 °F 29.7 in NW 3.1 mph 1.2 mph 92% 0 in 47 W/m2
05:29 44.6 °F 42.8 °F 29.7 in W 3.1 mph 1.9 mph 92% 0 in 54 W/m2
05:34 44.6 °F 42.8 °F 29.7 in W 3.7 mph 2.5 mph 92% 0 in 62 W/m2
05:39 44.6 °F 42.8 °F 29.7 in WNW 4.3 mph 2.5 mph 92% 0 in 67 W/m2
05:44 44.6 °F 42.8 °F 29.7 in W 4.3 mph 3.1 mph 92% 0 in 76 W/m2
05:49 44.6 °F 42.8 °F 29.7 in W 3.1 mph 2.5 mph 92% 0 in 86 W/m2
05:54 44.6 °F 42.8 °F 29.7 in WNW 4.3 mph 2.5 mph 91% 0 in 91 W/m2
05:59 44.6 °F 42.8 °F 29.7 in NW 3.1 mph 3.1 mph 91% 0 in 102 W/m2
06:04 44.6 °F 42.8 °F 29.7 in WNW 5 mph 3.1 mph 91% 0 in 109 W/m2
06:09 44.6 °F 42.8 °F 29.7 in WNW 5 mph 2.5 mph 91% 0 in 118 W/m2
06:14 46.4 °F 42.8 °F 29.7 in WNW 3.1 mph 1.9 mph 91% 0 in 127 W/m2
06:19 46.4 °F 42.8 °F 29.7 in NW 5 mph 4.3 mph 91% 0 in 134 W/m2
06:24 46.4 °F 42.8 °F 29.7 in NW 5 mph 3.1 mph 91% 0 in 141 W/m2
06:29 46.4 °F 42.8 °F 29.7 in WNW 4.3 mph 3.7 mph 91% 0 in 153 W/m2
06:34 46.4 °F 42.8 °F 29.7 in NW 5 mph 3.7 mph 90% 0 in 165 W/m2
06:39 46.4 °F 42.8 °F 29.7 in NW 5 mph 3.7 mph 90% 0 in 171 W/m2
06:44 46.4 °F 42.8 °F 29.7 in WNW 4.3 mph 3.1 mph 90% 0 in 181 W/m2
06:49 46.4 °F 44.6 °F 29.7 in WNW 3.7 mph 3.7 mph 90% 0 in 190 W/m2
06:54 46.4 °F 44.6 °F 29.7 in NW 4.3 mph 3.7 mph 89% 0 in 202 W/m2
06:59 46.4 °F 44.6 °F 29.7 in WNW 3.7 mph 2.5 mph 89% 0 in 213 W/m2
07:04 46.4 °F 44.6 °F 29.7 in NW 5 mph 3.1 mph 89% 0 in 225 W/m2
07:09 48.2 °F 44.6 °F 29.7 in NW 3.7 mph 2.5 mph 89% 0 in 236 W/m2
07:14 48.2 °F 44.6 °F 29.7 in NW 5 mph 3.7 mph 88% 0 in 248 W/m2
07:19 48.2 °F 44.6 °F 29.7 in NW 5.6 mph 5 mph 87% 0 in 260 W/m2
07:24 48.2 °F 44.6 °F 29.7 in NW 8.1 mph 4.3 mph 87% 0 in 269 W/m2
07:29 48.2 °F 44.6 °F 29.7 in WNW 4.3 mph 3.7 mph 86% 0 in 281 W/m2
07:34 48.2 °F 44.6 °F 29.7 in NW 6.2 mph 4.3 mph 86% 0 in 295 W/m2
07:39 48.2 °F 44.6 °F 29.7 in NW 6.8 mph 5.6 mph 85% 0 in 322 W/m2
07:44 48.2 °F 44.6 °F 29.7 in NNW 6.8 mph 6.8 mph 84% 0 in 378 W/m2
07:49 48.2 °F 44.6 °F 29.7 in NW 8.1 mph 5.6 mph 83% 0 in 399 W/m2
07:54 48.2 °F 44.6 °F 29.7 in NW 4.3 mph 2.5 mph 83% 0 in 422 W/m2
07:59 50 °F 44.6 °F 29.7 in NNW 6.2 mph 5.6 mph 82% 0 in 427 W/m2
08:04 50 °F 42.8 °F 29.7 in NNW 8.7 mph 6.2 mph 80% 0 in 392 W/m2
08:09 50 °F 42.8 °F 29.7 in NNW 9.9 mph 9.3 mph 80% 0 in 383 W/m2
08:14 50 °F 44.6 °F 29.7 in NNW 11.2 mph 6.2 mph 80% 0 in 418 W/m2
08:19 50 °F 42.8 °F 29.7 in NNW 7.5 mph 10.6 mph 79% 0 in 446 W/m2
08:24 50 °F 42.8 °F 29.7 in NNW 8.7 mph 8.7 mph 77% 0 in 462 W/m2
08:29 50 °F 42.8 °F 29.7 in N 13.7 mph 14.3 mph 76% 0 in 464 W/m2
08:34 50 °F 42.8 °F 29.7 in NNW 10.6 mph 8.7 mph 76% 0 in 466 W/m2
08:39 50 °F 42.8 °F 29.7 in NNW 6.8 mph 6.8 mph 77% 0 in 468 W/m2
08:44 50 °F 42.8 °F 29.7 in NW 8.1 mph 5.6 mph 76% 0 in 476 W/m2
08:49 51.8 °F 44.6 °F 29.7 in NNW 7.5 mph 8.1 mph 75% 0 in 485 W/m2
08:54 51.8 °F 42.8 °F 29.7 in NNW 12.4 mph 9.9 mph 72% 0 in 497 W/m2
08:59 51.8 °F 42.8 °F 29.7 in NNW 9.3 mph 8.7 mph 72% 0 in 524 W/m2
09:04 51.8 °F 42.8 °F 29.7 in NNW 14.3 mph 11.8 mph 72% 0 in 592 W/m2
09:09 51.8 °F 42.8 °F 29.7 in NNW 9.9 mph 10.6 mph 72% 0 in 592 W/m2
09:14 51.8 °F 42.8 °F 29.7 in NW 9.3 mph 10.6 mph 72% 0 in 580 W/m2
09:19 51.8 °F 44.6 °F 29.7 in NNW 7.5 mph 5.6 mph 73% 0 in 666 W/m2
09:24 51.8 °F 42.8 °F 29.7 in NNW 11.2 mph 8.7 mph 70% 0 in 666 W/m2
09:29 51.8 °F 42.8 °F 29.7 in NNW 11.8 mph 9.9 mph 71% 0 in 682 W/m2
09:34 51.8 °F 42.8 °F 29.7 in NNW 11.2 mph 7.5 mph 71% 0 in 689 W/m2
09:39 53.6 °F 42.8 °F 29.7 in NNW 11.8 mph 9.9 mph 69% 0 in 677 W/m2
09:44 53.6 °F 42.8 °F 29.7 in NNW 9.9 mph 7.5 mph 69% 0 in 707 W/m2
09:49 53.6 °F 42.8 °F 29.7 in NNW 10.6 mph 7.5 mph 69% 0 in 710 W/m2
09:54 53.6 °F 44.6 °F 29.7 in NNW 8.1 mph 5.6 mph 69% 0 in 652 W/m2
09:59 53.6 °F 44.6 °F 29.7 in NNW 12.4 mph 9.9 mph 68% 0 in 679 W/m2
10:04 53.6 °F 42.8 °F 29.7 in NNW 13 mph 11.8 mph 65% 0 in 689 W/m2
10:09 53.6 °F 42.8 °F 29.7 in NNW 8.7 mph 9.3 mph 66% 0 in 698 W/m2
10:14 53.6 °F 42.8 °F 29.7 in NNW 13.7 mph 11.2 mph 65% 0 in 712 W/m2
10:19 53.6 °F 42.8 °F 29.7 in NNW 11.8 mph 8.7 mph 65% 0 in 687 W/m2
10:24 53.6 °F 42.8 °F 29.7 in NNW 10.6 mph 8.7 mph 65% 0 in 738 W/m2
10:29 53.6 °F 42.8 °F 29.7 in NNW 14.9 mph 12.4 mph 64% 0 in 747 W/m2
10:34 53.6 °F 42.8 °F 29.7 in N 17.4 mph 14.3 mph 63% 0 in 742 W/m2
10:39 53.6 °F 42.8 °F 29.7 in NNW 14.3 mph 10.6 mph 64% 0 in 752 W/m2
10:44 53.6 °F 42.8 °F 29.7 in NNW 13 mph 10.6 mph 64% 0 in 742 W/m2
10:49 53.6 °F 42.8 °F 29.7 in NW 8.7 mph 9.3 mph 65% 0 in 860 W/m2
10:54 55.4 °F 42.8 °F 29.7 in NNW 13 mph 9.9 mph 64% 0 in 860 W/m2
10:59 55.4 °F 42.8 °F 29.7 in NNW 16.8 mph 13.7 mph 63% 0 in 838 W/m2
11:04 53.6 °F 42.8 °F 29.7 in NNW 11.8 mph 11.8 mph 64% 0 in 756 W/m2
11:09 55.4 °F 42.8 °F 29.7 in NNW 13.7 mph 11.8 mph 64% 0 in 814 W/m2
11:14 55.4 °F 42.8 °F 29.7 in NNW 11.2 mph 10.6 mph 62% 0 in 900 W/m2
11:19 55.4 °F 42.8 °F 29.7 in NNW 9.9 mph 9.3 mph 62% 0 in 819 W/m2
11:24 55.4 °F 42.8 °F 29.7 in NNW 14.3 mph 10.6 mph 63% 0 in 840 W/m2
11:29 55.4 °F 42.8 °F 29.7 in NNW 13.7 mph 11.2 mph 64% 0 in 840 W/m2
11:34 55.4 °F 42.8 °F 29.7 in N 16.8 mph 11.2 mph 63% 0 in 751 W/m2
11:39 55.4 °F 42.8 °F 29.7 in NNW 13.7 mph 11.2 mph 64% 0 in 754 W/m2
11:44 55.4 °F 42.8 °F 29.7 in NNW 11.8 mph 8.1 mph 65% 0 in 759 W/m2
11:49 55.4 °F 42.8 °F 29.6 in NNW 12.4 mph 9.3 mph 65% 0 in 766 W/m2
11:54 55.4 °F 44.6 °F 29.6 in NNW 15.5 mph 10.6 mph 65% 0 in 791 W/m2
11:59 55.4 °F 42.8 °F 29.6 in NNW 13.7 mph 9.3 mph 63% 0 in 795 W/m2
12:04 55.4 °F 42.8 °F 29.6 in NNW 14.3 mph 11.2 mph 62% 0 in 638 W/m2
12:09 55.4 °F 42.8 °F 29.6 in NNW 17.4 mph 11.8 mph 62% 0 in 448 W/m2
12:14 55.4 °F 42.8 °F 29.7 in NNW 14.9 mph 11.8 mph 62% 0 in 923 W/m2
Compliments of Weather Underground - 2 mb